Time;durP1;ratioP1;P1;durP2;ratioP2;P2;SDS_P1;SDS_P2;PMS_P1;PMS_P2;Temp;Humidity;BMP_temperature;BMP_pressure;BME280_temperature;BME280_humidity;BME280_pressure;Samples;Min_cycle;Max_cycle;Signal;HPM_P1;HPM_P2
2022/03/02 00:00:01;;;;;;;;;;;21.60;27.70;;;;;;462918;257;1274;-39
2022/03/02 00:02:03;;;;;;;;;;;21.60;27.70;;;;;;463111;257;1402;-39
2022/03/02 00:04:04;;;;;;;;;;;21.50;27.70;;;;;;462837;257;1207;-39
2022/03/02 00:06:05;;;;;;;;;;;21.50;27.70;;;;;;462728;257;1201;-39
2022/03/02 00:08:07;;;;;;;;;;;21.60;27.70;;;;;;462919;257;1187;-39
2022/03/02 00:10:09;;;;;;;;;;;21.60;27.70;;;;;;462925;257;1141;-38
2022/03/02 00:12:10;;;;;;;;;;;21.60;27.70;;;;;;462690;257;2213;-38
2022/03/02 00:14:11;;;;;;;;;;;21.60;27.70;;;;;;463195;257;1708;-39
2022/03/02 00:16:12;;;;;;;;;;;21.60;27.70;;;;;;462970;257;1246;-38
2022/03/02 00:18:13;;;;;;;;;;;21.60;27.70;;;;;;462786;257;1339;-38
2022/03/02 00:20:15;;;;;;;;;;;21.60;27.70;;;;;;463178;257;1037;-39
2022/03/02 00:22:16;;;;;;;;;;;21.60;27.70;;;;;;462908;257;1327;-39
2022/03/02 00:24:17;;;;;;;;;;;21.60;27.70;;;;;;462738;257;2202;-39
2022/03/02 00:26:19;;;;;;;;;;;21.50;27.70;;;;;;462716;257;1205;-39
2022/03/02 00:28:20;;;;;;;;;;;21.50;27.70;;;;;;463073;257;1185;-39
2022/03/02 00:30:22;;;;;;;;;;;21.50;27.80;;;;;;463199;257;1080;-39
2022/03/02 00:32:23;;;;;;;;;;;21.50;27.70;;;;;;462708;257;1351;-38
2022/03/02 00:34:24;;;;;;;;;;;21.50;27.70;;;;;;462884;257;1184;-39
2022/03/02 00:36:26;;;;;;;;;;;21.50;27.70;;;;;;462942;257;1486;-38
2022/03/02 00:38:27;;;;;;;;;;;21.50;27.70;;;;;;463137;257;1101;-39
2022/03/02 00:40:28;;;;;;;;;;;21.60;27.70;;;;;;462808;257;1097;-38
2022/03/02 00:42:30;;;;;;;;;;;21.50;27.70;;;;;;462712;257;1176;-38
2022/03/02 00:44:31;;;;;;;;;;;21.50;27.80;;;;;;463192;257;2194;-38
2022/03/02 00:46:32;;;;;;;;;;;21.50;27.70;;;;;;462716;257;1253;-39
2022/03/02 00:48:33;;;;;;;;;;;21.50;27.70;;;;;;462840;257;1354;-39
2022/03/02 00:50:35;;;;;;;;;;;21.50;27.70;;;;;;463152;257;1172;-39
2022/03/02 00:52:36;;;;;;;;;;;21.50;27.70;;;;;;462757;257;1172;-39
2022/03/02 00:54:37;;;;;;;;;;;21.50;27.70;;;;;;462806;257;1115;-39
2022/03/02 00:56:39;;;;;;;;;;;21.50;27.70;;;;;;462763;257;1157;-39
2022/03/02 00:58:40;;;;;;;;;;;21.50;27.70;;;;;;462832;257;1231;-39
2022/03/02 01:00:41;;;;;;;;;;;21.50;27.70;;;;;;463006;257;1393;-39
2022/03/02 01:02:43;;;;;;;;;;;21.50;27.70;;;;;;463191;257;1215;-39
2022/03/02 01:04:44;;;;;;;;;;;21.50;27.70;;;;;;462896;257;2203;-39
2022/03/02 01:06:45;;;;;;;;;;;21.50;27.70;;;;;;462952;257;1365;-39
2022/03/02 01:08:47;;;;;;;;;;;21.50;27.70;;;;;;462804;257;975;-39
2022/03/02 01:10:48;;;;;;;;;;;21.50;27.70;;;;;;462763;257;1193;-38
2022/03/02 01:12:49;;;;;;;;;;;21.50;27.70;;;;;;462764;257;1181;-38
2022/03/02 01:14:51;;;;;;;;;;;21.50;27.70;;;;;;462864;257;1128;-39
2022/03/02 01:16:52;;;;;;;;;;;21.50;27.70;;;;;;462805;257;1448;-39
2022/03/02 01:18:53;;;;;;;;;;;21.50;27.70;;;;;;462760;257;1126;-39
2022/03/02 01:20:55;;;;;;;;;;;21.50;27.70;;;;;;462743;257;1507;-39
2022/03/02 01:22:56;;;;;;;;;;;21.50;27.70;;;;;;463197;257;1211;-39
2022/03/02 01:24:57;;;;;;;;;;;21.50;27.70;;;;;;462878;257;2136;-39
2022/03/02 01:26:58;;;;;;;;;;;21.50;27.70;;;;;;462744;257;1338;-38
2022/03/02 01:29:00;;;;;;;;;;;21.50;27.80;;;;;;462844;257;1084;-38
2022/03/02 01:31:01;;;;;;;;;;;21.50;27.80;;;;;;463217;257;1405;-39
2022/03/02 01:33:02;;;;;;;;;;;21.50;27.70;;;;;;463118;257;1203;-38
2022/03/02 01:35:04;;;;;;;;;;;21.50;27.80;;;;;;462932;257;1207;-38
2022/03/02 01:37:05;;;;;;;;;;;21.50;27.80;;;;;;462756;257;1334;-38
2022/03/02 01:39:06;;;;;;;;;;;21.40;27.70;;;;;;463253;257;1023;-39
2022/03/02 01:41:09;;;;;;;;;;;21.40;27.80;;;;;;463074;257;1380;-39
2022/03/02 01:43:09;;;;;;;;;;;21.40;27.80;;;;;;462718;257;2438;-39
2022/03/02 01:45:10;;;;;;;;;;;21.50;27.80;;;;;;463169;257;2137;-39
2022/03/02 01:47:12;;;;;;;;;;;21.50;27.70;;;;;;462948;257;1317;-38
2022/03/02 01:49:13;;;;;;;;;;;21.50;27.70;;;;;;462775;257;1189;-39
2022/03/02 01:51:14;;;;;;;;;;;21.50;27.70;;;;;;462719;257;1554;-38
2022/03/02 01:53:16;;;;;;;;;;;21.50;27.70;;;;;;462741;257;1185;-39
2022/03/02 01:55:17;;;;;;;;;;;21.50;27.70;;;;;;462743;257;1086;-38
2022/03/02 01:57:18;;;;;;;;;;;21.50;27.70;;;;;;462693;257;1658;-38
2022/03/02 01:59:19;;;;;;;;;;;21.50;27.70;;;;;;463041;257;1068;-38
2022/03/02 02:01:21;;;;;;;;;;;21.50;27.70;;;;;;462953;257;1486;-38
2022/03/02 02:03:22;;;;;;;;;;;21.50;27.70;;;;;;462781;257;1152;-38
2022/03/02 02:05:24;;;;;;;;;;;21.50;27.70;;;;;;462795;257;2206;-39
2022/03/02 02:07:26;;;;;;;;;;;21.50;27.70;;;;;;463154;257;1154;-38
2022/03/02 02:09:26;;;;;;;;;;;21.50;27.70;;;;;;463128;257;2272;-38
2022/03/02 02:11:27;;;;;;;;;;;21.50;27.70;;;;;;462738;257;1210;-38
2022/03/02 02:13:32;;;;;;;;;;;21.50;27.70;;;;;;463232;257;1057;-39
2022/03/02 02:15:31;;;;;;;;;;;21.50;27.70;;;;;;463085;256;2378;-39
2022/03/02 02:17:33;;;;;;;;;;;21.50;27.70;;;;;;463065;257;1268;-38
2022/03/02 02:19:34;;;;;;;;;;;21.60;27.80;;;;;;463086;257;1178;-39
2022/03/02 02:21:35;;;;;;;;;;;21.50;27.70;;;;;;463082;257;1150;-39
2022/03/02 02:23:37;;;;;;;;;;;21.50;27.70;;;;;;462767;257;1204;-39
2022/03/02 02:25:38;;;;;;;;;;;21.60;27.70;;;;;;463158;257;2129;-39
2022/03/02 02:27:39;;;;;;;;;;;21.50;27.80;;;;;;463178;257;1234;-38
2022/03/02 02:29:41;;;;;;;;;;;21.50;27.70;;;;;;462897;257;1097;-39
2022/03/02 02:31:42;;;;;;;;;;;21.50;27.80;;;;;;462786;257;1412;-39
2022/03/02 02:33:43;;;;;;;;;;;21.50;27.80;;;;;;462823;257;1231;-39
2022/03/02 02:35:44;;;;;;;;;;;21.50;27.80;;;;;;462917;257;1929;-39
2022/03/02 02:37:46;;;;;;;;;;;21.50;27.80;;;;;;462769;257;1251;-38
2022/03/02 02:39:47;;;;;;;;;;;21.50;27.80;;;;;;462804;257;1000;-39
2022/03/02 02:41:48;;;;;;;;;;;21.50;27.80;;;;;;463140;254;1096;-39
2022/03/02 02:43:50;;;;;;;;;;;21.60;27.80;;;;;;462787;257;1258;-38
2022/03/02 02:45:51;;;;;;;;;;;21.50;27.80;;;;;;462896;257;2132;-39
2022/03/02 02:47:54;;;;;;;;;;;21.50;27.80;;;;;;463125;257;1058;-39
2022/03/02 02:49:55;;;;;;;;;;;21.50;27.80;;;;;;462994;257;1277;-39
2022/03/02 02:51:57;;;;;;;;;;;21.50;27.80;;;;;;463174;257;1122;-39
2022/03/02 02:53:58;;;;;;;;;;;21.50;27.80;;;;;;463198;257;2579;-39
2022/03/02 02:55:59;;;;;;;;;;;21.50;27.80;;;;;;462662;257;2483;-39
2022/03/02 02:58:00;;;;;;;;;;;21.60;27.80;;;;;;463140;257;1215;-39
2022/03/02 03:00:01;;;;;;;;;;;21.50;27.80;;;;;;463226;257;1107;-39
2022/03/02 03:02:03;;;;;;;;;;;21.50;27.80;;;;;;462873;257;1338;-39
2022/03/02 03:04:06;;;;;;;;;;;21.60;27.80;;;;;;463183;257;1086;-38
2022/03/02 03:06:05;;;;;;;;;;;21.50;27.80;;;;;;462775;257;2338;-39
2022/03/02 03:08:06;;;;;;;;;;;21.50;27.80;;;;;;463068;257;1040;-39
2022/03/02 03:10:08;;;;;;;;;;;21.50;27.80;;;;;;463208;257;1062;-39
2022/03/02 03:12:09;;;;;;;;;;;21.50;27.80;;;;;;463104;253;1421;-39
2022/03/02 03:14:11;;;;;;;;;;;21.50;27.80;;;;;;463199;257;1085;-39
2022/03/02 03:16:12;;;;;;;;;;;21.40;27.80;;;;;;463128;257;1330;-39
2022/03/02 03:18:13;;;;;;;;;;;21.50;27.80;;;;;;462777;257;1245;-39
2022/03/02 03:20:15;;;;;;;;;;;21.40;27.80;;;;;;463054;257;1195;-38
2022/03/02 03:22:16;;;;;;;;;;;21.50;27.80;;;;;;462881;257;1317;-38
2022/03/02 03:24:17;;;;;;;;;;;21.40;27.80;;;;;;463232;257;1061;-39
2022/03/02 03:26:19;;;;;;;;;;;21.50;27.80;;;;;;463138;257;2191;-39
2022/03/02 03:28:20;;;;;;;;;;;21.50;27.80;;;;;;462780;257;1159;-38
2022/03/02 03:30:21;;;;;;;;;;;21.40;27.80;;;;;;462988;257;1078;-38
2022/03/02 03:32:23;;;;;;;;;;;21.50;27.80;;;;;;462721;257;1197;-39
2022/03/02 03:34:24;;;;;;;;;;;21.50;27.80;;;;;;463195;257;1062;-38
2022/03/02 03:36:25;;;;;;;;;;;21.50;27.80;;;;;;462755;257;1358;-38
2022/03/02 03:38:27;;;;;;;;;;;21.50;27.80;;;;;;463014;257;1026;-38
2022/03/02 03:40:28;;;;;;;;;;;21.50;27.80;;;;;;463064;257;1394;-39
2022/03/02 03:42:29;;;;;;;;;;;21.50;27.80;;;;;;463185;257;1235;-39
2022/03/02 03:44:30;;;;;;;;;;;21.50;27.80;;;;;;463225;257;1054;-38
2022/03/02 03:46:32;;;;;;;;;;;21.50;27.80;;;;;;462737;257;2204;-39
2022/03/02 03:48:33;;;;;;;;;;;21.50;27.80;;;;;;462898;257;1201;-39
2022/03/02 03:50:34;;;;;;;;;;;21.50;27.70;;;;;;462924;257;1351;-38
2022/03/02 03:52:36;;;;;;;;;;;21.50;27.80;;;;;;463110;257;1224;-38
2022/03/02 03:54:37;;;;;;;;;;;21.50;27.80;;;;;;463191;257;1129;-39
2022/03/02 03:56:38;;;;;;;;;;;21.50;27.70;;;;;;462842;257;1368;-39
2022/03/02 03:58:40;;;;;;;;;;;21.50;27.80;;;;;;462829;257;1068;-38
2022/03/02 04:00:41;;;;;;;;;;;21.50;27.80;;;;;;463213;257;1168;-39
2022/03/02 04:02:43;;;;;;;;;;;21.50;27.80;;;;;;463197;257;1157;-38
2022/03/02 04:04:44;;;;;;;;;;;21.50;27.80;;;;;;463211;257;1049;-39
2022/03/02 04:06:45;;;;;;;;;;;21.50;27.80;;;;;;462874;257;2140;-39
2022/03/02 04:08:47;;;;;;;;;;;21.50;27.80;;;;;;462803;257;1062;-39
2022/03/02 04:10:48;;;;;;;;;;;21.50;27.80;;;;;;463103;257;1326;-38
2022/03/02 04:12:49;;;;;;;;;;;21.40;27.80;;;;;;462693;257;1615;-39
2022/03/02 04:14:51;;;;;;;;;;;21.50;27.80;;;;;;463205;257;1097;-39
2022/03/02 04:16:52;;;;;;;;;;;21.50;27.70;;;;;;463142;257;1305;-38
2022/03/02 04:18:53;;;;;;;;;;;21.50;27.80;;;;;;463145;257;1137;-39
2022/03/02 04:20:55;;;;;;;;;;;21.50;27.70;;;;;;462880;257;1445;-38
2022/03/02 04:22:56;;;;;;;;;;;21.50;27.70;;;;;;462728;257;1222;-38
2022/03/02 04:24:57;;;;;;;;;;;21.50;27.70;;;;;;463150;257;1060;-39
2022/03/02 04:26:59;;;;;;;;;;;21.40;27.80;;;;;;462763;257;2120;-38
2022/03/02 04:29:00;;;;;;;;;;;21.50;27.80;;;;;;462784;257;1188;-39
2022/03/02 04:31:01;;;;;;;;;;;21.40;27.80;;;;;;462993;254;1272;-39
2022/03/02 04:33:02;;;;;;;;;;;21.50;27.80;;;;;;463176;257;1197;-39
2022/03/02 04:35:04;;;;;;;;;;;21.50;27.80;;;;;;462896;257;1092;-39
2022/03/02 04:37:05;;;;;;;;;;;21.50;27.80;;;;;;462935;257;1284;-39
2022/03/02 04:39:06;;;;;;;;;;;21.50;27.80;;;;;;463045;257;1094;-38
2022/03/02 04:41:08;;;;;;;;;;;21.40;27.70;;;;;;463061;257;1079;-39
2022/03/02 04:43:09;;;;;;;;;;;21.40;27.70;;;;;;463216;257;1246;-39
2022/03/02 04:45:11;;;;;;;;;;;21.50;27.80;;;;;;462975;257;1110;-39
2022/03/02 04:47:12;;;;;;;;;;;21.50;27.80;;;;;;462717;257;2207;-39
2022/03/02 04:49:14;;;;;;;;;;;21.50;27.80;;;;;;463158;257;1102;-39
2022/03/02 04:51:15;;;;;;;;;;;21.40;27.80;;;;;;463108;257;1269;-39
2022/03/02 04:53:16;;;;;;;;;;;21.50;27.80;;;;;;463086;257;1140;-39
2022/03/02 04:55:18;;;;;;;;;;;21.40;27.70;;;;;;462923;257;1121;-38
2022/03/02 04:57:19;;;;;;;;;;;21.40;27.70;;;;;;462683;257;1218;-38
2022/03/02 04:59:20;;;;;;;;;;;21.50;27.70;;;;;;462789;257;1064;-39
2022/03/02 05:01:21;;;;;;;;;;;21.50;27.70;;;;;;462950;257;1346;-39
2022/03/02 05:03:23;;;;;;;;;;;21.50;27.70;;;;;;462809;257;1248;-39
2022/03/02 05:05:24;;;;;;;;;;;21.50;27.80;;;;;;463149;257;1397;-39
2022/03/02 05:07:25;;;;;;;;;;;21.50;27.70;;;;;;462689;257;2199;-39
2022/03/02 05:09:27;;;;;;;;;;;21.50;27.70;;;;;;463237;257;1018;-39
2022/03/02 05:11:28;;;;;;;;;;;21.50;27.70;;;;;;462869;257;1330;-39
2022/03/02 05:13:29;;;;;;;;;;;21.50;27.70;;;;;;462725;257;1069;-39
2022/03/02 05:15:31;;;;;;;;;;;21.50;27.70;;;;;;462837;257;1195;-39
2022/03/02 05:17:32;;;;;;;;;;;21.50;27.70;;;;;;462717;257;1218;-38
2022/03/02 05:19:34;;;;;;;;;;;21.50;27.70;;;;;;462748;257;1116;-39
2022/03/02 05:21:36;;;;;;;;;;;21.50;27.70;;;;;;463011;257;1351;-39
2022/03/02 05:23:36;;;;;;;;;;;21.50;27.70;;;;;;463021;257;2171;-39
2022/03/02 05:25:38;;;;;;;;;;;21.50;27.70;;;;;;462733;257;1346;-39
2022/03/02 05:27:39;;;;;;;;;;;21.50;27.70;;;;;;462773;257;2121;-39
2022/03/02 05:29:40;;;;;;;;;;;21.50;27.80;;;;;;462726;257;1061;-39
2022/03/02 05:31:41;;;;;;;;;;;21.50;27.80;;;;;;462788;257;1176;-39
2022/03/02 05:33:43;;;;;;;;;;;21.50;27.80;;;;;;462746;257;1097;-39
2022/03/02 05:35:44;;;;;;;;;;;21.50;27.70;;;;;;462674;256;2092;-38
2022/03/02 05:37:45;;;;;;;;;;;21.50;27.70;;;;;;462770;257;1235;-38
2022/03/02 05:39:47;;;;;;;;;;;21.50;27.70;;;;;;463081;257;1116;-39
2022/03/02 05:41:48;;;;;;;;;;;21.50;27.70;;;;;;462530;257;1384;-38
2022/03/02 05:43:49;;;;;;;;;;;21.50;27.70;;;;;;462881;257;993;-38
2022/03/02 05:45:51;;;;;;;;;;;21.50;27.70;;;;;;462779;257;1162;-39
2022/03/02 05:47:52;;;;;;;;;;;21.50;27.70;;;;;;462669;257;2136;-38
2022/03/02 05:49:53;;;;;;;;;;;21.50;27.70;;;;;;462633;257;1194;-39
2022/03/02 05:51:55;;;;;;;;;;;21.50;27.70;;;;;;462802;257;1140;-39
2022/03/02 05:53:56;;;;;;;;;;;21.50;27.70;;;;;;462705;257;1069;-38
2022/03/02 05:55:57;;;;;;;;;;;21.50;27.70;;;;;;462515;257;1490;-39
2022/03/02 05:57:59;;;;;;;;;;;21.60;27.80;;;;;;462552;257;1325;-39
2022/03/02 06:00:00;;;;;;;;;;;21.50;27.80;;;;;;462574;257;1075;-39
2022/03/02 06:02:01;;;;;;;;;;;21.50;27.80;;;;;;462540;257;1639;-39
2022/03/02 06:04:03;;;;;;;;;;;21.50;27.80;;;;;;462505;257;1086;-38
2022/03/02 06:06:05;;;;;;;;;;;21.50;27.80;;;;;;462604;257;1646;-39
2022/03/02 06:08:07;;;;;;;;;;;21.50;27.80;;;;;;462741;257;2203;-38
2022/03/02 06:10:07;;;;;;;;;;;21.50;27.80;;;;;;462516;258;2354;-39
2022/03/02 06:12:08;;;;;;;;;;;21.50;27.80;;;;;;462468;257;1462;-38
2022/03/02 06:14:10;;;;;;;;;;;21.50;27.80;;;;;;462659;257;1093;-39
2022/03/02 06:16:11;;;;;;;;;;;21.50;27.80;;;;;;462419;257;2450;-39
2022/03/02 06:18:12;;;;;;;;;;;21.50;27.80;;;;;;462343;257;1406;-39
2022/03/02 06:20:13;;;;;;;;;;;21.50;27.80;;;;;;462551;257;1154;-39
2022/03/02 06:22:15;;;;;;;;;;;21.50;27.80;;;;;;462403;257;1239;-39
2022/03/02 06:24:16;;;;;;;;;;;21.50;27.80;;;;;;462558;257;1407;-38
2022/03/02 06:26:18;;;;;;;;;;;21.50;27.80;;;;;;462898;257;1193;-38
2022/03/02 06:28:19;;;;;;;;;;;21.50;27.80;;;;;;462570;257;2198;-39
2022/03/02 06:30:21;;;;;;;;;;;21.50;27.80;;;;;;462600;257;1081;-38
2022/03/02 06:32:22;;;;;;;;;;;21.50;27.80;;;;;;462444;257;1263;-39
2022/03/02 06:34:24;;;;;;;;;;;21.60;27.80;;;;;;462560;257;1130;-39
2022/03/02 06:36:25;;;;;;;;;;;21.50;27.80;;;;;;462539;257;1393;-39
2022/03/02 06:38:27;;;;;;;;;;;21.50;27.80;;;;;;462446;257;1317;-38
2022/03/02 06:40:27;;;;;;;;;;;21.50;27.90;;;;;;462496;257;2110;-38
2022/03/02 06:42:29;;;;;;;;;;;21.50;27.90;;;;;;462360;257;1258;-38
2022/03/02 06:44:30;;;;;;;;;;;21.50;27.90;;;;;;462388;257;1078;-38
2022/03/02 06:46:32;;;;;;;;;;;21.50;27.90;;;;;;462505;257;2136;-39
2022/03/02 06:48:33;;;;;;;;;;;21.50;27.80;;;;;;462447;257;1111;-39
2022/03/02 06:50:34;;;;;;;;;;;21.50;27.90;;;;;;462651;257;1073;-39
2022/03/02 06:52:36;;;;;;;;;;;21.50;27.90;;;;;;462519;253;1475;-39
2022/03/02 06:54:37;;;;;;;;;;;21.50;27.80;;;;;;462491;257;1165;-38
2022/03/02 06:56:38;;;;;;;;;;;21.50;27.80;;;;;;462581;257;1241;-39
2022/03/02 06:58:40;;;;;;;;;;;21.50;27.80;;;;;;462479;257;1076;-39
2022/03/02 07:00:41;;;;;;;;;;;21.50;27.80;;;;;;462624;257;1128;-39
2022/03/02 07:02:43;;;;;;;;;;;21.50;27.80;;;;;;462419;257;1243;-38
2022/03/02 07:04:44;;;;;;;;;;;21.50;27.80;;;;;;462511;257;1096;-39
2022/03/02 07:06:46;;;;;;;;;;;21.50;27.80;;;;;;462541;257;2199;-38
2022/03/02 07:08:48;;;;;;;;;;;21.50;27.80;;;;;;462552;257;1228;-39
2022/03/02 07:10:48;;;;;;;;;;;21.50;27.90;;;;;;462356;257;1775;-39
2022/03/02 07:12:49;;;;;;;;;;;21.50;27.90;;;;;;462294;257;1320;-39
2022/03/02 07:14:51;;;;;;;;;;;21.50;27.80;;;;;;462410;257;1101;-39
2022/03/02 07:16:52;;;;;;;;;;;21.50;27.80;;;;;;462252;257;1249;-39
2022/03/02 07:18:53;;;;;;;;;;;21.50;27.80;;;;;;462404;257;1113;-39
2022/03/02 07:20:55;;;;;;;;;;;21.50;27.80;;;;;;462198;257;1559;-39
2022/03/02 07:22:56;;;;;;;;;;;21.60;27.80;;;;;;462316;257;1608;-39
2022/03/02 07:24:58;;;;;;;;;;;21.50;27.80;;;;;;462104;257;1219;-39
2022/03/02 07:26:59;;;;;;;;;;;21.50;27.70;;;;;;462175;257;2203;-39
2022/03/02 07:29:00;;;;;;;;;;;21.50;27.70;;;;;;462408;257;1103;-39
2022/03/02 07:31:02;;;;;;;;;;;21.60;27.70;;;;;;462253;257;1459;-39
2022/03/02 07:33:03;;;;;;;;;;;21.60;27.70;;;;;;462229;257;1171;-39
2022/03/02 07:35:04;;;;;;;;;;;21.50;27.70;;;;;;462480;257;1089;-39
2022/03/02 07:37:06;;;;;;;;;;;21.50;27.70;;;;;;462020;257;1212;-39
2022/03/02 07:39:07;;;;;;;;;;;21.50;27.70;;;;;;462109;257;1161;-39
2022/03/02 07:41:08;;;;;;;;;;;21.60;27.70;;;;;;462045;257;1209;-39
2022/03/02 07:43:09;;;;;;;;;;;21.60;27.70;;;;;;461985;257;1098;-39
2022/03/02 07:45:11;;;;;;;;;;;21.60;27.70;;;;;;462000;257;1118;-39
2022/03/02 07:47:12;;;;;;;;;;;21.60;27.70;;;;;;462123;257;2148;-39
2022/03/02 07:49:14;;;;;;;;;;;21.60;27.70;;;;;;462227;257;1144;-39
2022/03/02 07:51:15;;;;;;;;;;;21.60;27.60;;;;;;462045;257;1431;-39
2022/03/02 07:53:17;;;;;;;;;;;21.60;27.60;;;;;;462277;257;1102;-39
2022/03/02 07:55:18;;;;;;;;;;;21.60;27.60;;;;;;462079;257;1233;-39
2022/03/02 07:57:19;;;;;;;;;;;21.60;27.60;;;;;;462170;257;1258;-39
2022/03/02 07:59:21;;;;;;;;;;;21.60;27.60;;;;;;462240;257;1119;-39
2022/03/02 08:01:22;;;;;;;;;;;21.60;27.60;;;;;;462016;257;1191;-39
2022/03/02 08:03:23;;;;;;;;;;;21.60;27.60;;;;;;461831;257;1121;-39
2022/03/02 08:05:25;;;;;;;;;;;21.60;27.60;;;;;;461917;257;1158;-39
2022/03/02 08:07:26;;;;;;;;;;;21.60;27.60;;;;;;462122;257;2127;-39
2022/03/02 08:09:27;;;;;;;;;;;21.60;27.50;;;;;;462282;257;1133;-39
2022/03/02 08:11:28;;;;;;;;;;;21.60;27.60;;;;;;462001;257;1286;-39
2022/03/02 08:13:30;;;;;;;;;;;21.60;27.60;;;;;;461923;257;1151;-39
2022/03/02 08:15:31;;;;;;;;;;;21.60;27.60;;;;;;461836;257;1153;-39
2022/03/02 08:17:32;;;;;;;;;;;21.60;27.60;;;;;;461909;257;1192;-39
2022/03/02 08:19:34;;;;;;;;;;;21.60;27.50;;;;;;461854;257;1199;-39
2022/03/02 08:21:35;;;;;;;;;;;21.60;27.60;;;;;;461919;257;1247;-39
2022/03/02 08:23:37;;;;;;;;;;;21.60;27.60;;;;;;462136;257;1128;-39
2022/03/02 08:25:38;;;;;;;;;;;21.60;27.60;;;;;;462101;257;1169;-39
2022/03/02 08:27:40;;;;;;;;;;;21.60;27.50;;;;;;462024;257;2203;-39
2022/03/02 08:29:41;;;;;;;;;;;21.60;27.50;;;;;;462069;257;1328;-39
2022/03/02 08:31:42;;;;;;;;;;;21.60;27.50;;;;;;461890;257;1414;-39
2022/03/02 08:33:44;;;;;;;;;;;21.60;27.50;;;;;;461920;257;1093;-39
2022/03/02 08:35:45;;;;;;;;;;;21.60;27.50;;;;;;462048;257;1433;-39
2022/03/02 08:37:47;;;;;;;;;;;21.60;27.50;;;;;;462219;257;1108;-39
2022/03/02 08:39:48;;;;;;;;;;;21.60;27.50;;;;;;462264;257;1058;-39
2022/03/02 08:41:49;;;;;;;;;;;21.60;27.50;;;;;;462102;257;1564;-39
2022/03/02 08:43:50;;;;;;;;;;;21.60;27.50;;;;;;461978;257;1110;-39
2022/03/02 08:45:52;;;;;;;;;;;21.60;27.50;;;;;;461973;257;1438;-39
2022/03/02 08:47:53;;;;;;;;;;;21.60;27.50;;;;;;462460;257;2195;-39
2022/03/02 08:49:54;;;;;;;;;;;21.60;27.50;;;;;;462421;257;1053;-39
2022/03/02 08:51:56;;;;;;;;;;;21.60;27.50;;;;;;462041;257;1446;-39
2022/03/02 08:53:57;;;;;;;;;;;21.60;27.50;;;;;;462136;257;1178;-39
2022/03/02 08:55:58;;;;;;;;;;;21.60;27.50;;;;;;462065;257;1442;-39
2022/03/02 08:58:00;;;;;;;;;;;21.60;27.50;;;;;;462100;257;1078;-39
2022/03/02 09:00:01;;;;;;;;;;;21.60;27.50;;;;;;462100;257;1669;-39
2022/03/02 09:02:03;;;;;;;;;;;21.60;27.50;;;;;;461954;254;1379;-39
2022/03/02 09:04:04;;;;;;;;;;;21.60;27.40;;;;;;461953;257;1077;-39
2022/03/02 09:06:05;;;;;;;;;;;21.60;27.40;;;;;;461992;257;1362;-39
2022/03/02 09:08:07;;;;;;;;;;;21.60;27.40;;;;;;461872;257;2156;-39
2022/03/02 09:10:08;;;;;;;;;;;21.60;27.40;;;;;;461907;257;1267;-39
2022/03/02 09:12:09;;;;;;;;;;;21.60;27.40;;;;;;462006;257;1356;-39
2022/03/02 09:14:11;;;;;;;;;;;21.60;27.40;;;;;;462154;257;1092;-39
2022/03/02 09:16:12;;;;;;;;;;;21.60;27.40;;;;;;462113;254;1193;-39
2022/03/02 09:18:14;;;;;;;;;;;21.60;27.40;;;;;;462138;257;1293;-39
2022/03/02 09:20:15;;;;;;;;;;;21.60;27.30;;;;;;462127;257;1189;-39
2022/03/02 09:22:17;;;;;;;;;;;21.60;27.30;;;;;;462268;257;1242;-39
2022/03/02 09:24:17;;;;;;;;;;;21.60;27.30;;;;;;462206;256;1335;-39
2022/03/02 09:26:19;;;;;;;;;;;21.60;27.30;;;;;;461967;257;1241;-39
2022/03/02 09:28:20;;;;;;;;;;;21.70;27.30;;;;;;462060;257;2187;-39
2022/03/02 09:30:21;;;;;;;;;;;21.70;27.30;;;;;;462053;257;1298;-39
2022/03/02 09:32:23;;;;;;;;;;;21.60;27.30;;;;;;462105;257;1180;-39
2022/03/02 09:34:24;;;;;;;;;;;21.70;27.30;;;;;;462076;257;1203;-39
2022/03/02 09:36:26;;;;;;;;;;;21.60;27.30;;;;;;461963;257;1116;-39
2022/03/02 09:38:27;;;;;;;;;;;21.60;27.30;;;;;;462141;257;1332;-39
2022/03/02 09:40:28;;;;;;;;;;;21.60;27.30;;;;;;461981;257;1186;-39
2022/03/02 09:42:30;;;;;;;;;;;21.60;27.30;;;;;;461885;257;1203;-39
2022/03/02 09:44:31;;;;;;;;;;;21.70;27.30;;;;;;461897;257;1088;-39
2022/03/02 09:46:32;;;;;;;;;;;21.60;27.30;;;;;;461954;257;1241;-39
2022/03/02 09:48:34;;;;;;;;;;;21.70;27.30;;;;;;462221;257;2226;-39
2022/03/02 09:50:35;;;;;;;;;;;21.60;27.30;;;;;;462044;257;1126;-39
2022/03/02 09:52:36;;;;;;;;;;;21.60;27.30;;;;;;462048;257;1253;-39
2022/03/02 09:54:39;;;;;;;;;;;21.60;27.20;;;;;;462242;257;1158;-39
2022/03/02 09:56:39;;;;;;;;;;;21.60;27.30;;;;;;461949;257;1702;-39
2022/03/02 09:58:40;;;;;;;;;;;21.70;27.30;;;;;;462006;257;1112;-39
2022/03/02 10:00:42;;;;;;;;;;;21.70;27.30;;;;;;462005;257;1345;-39
2022/03/02 10:02:43;;;;;;;;;;;21.60;27.20;;;;;;461813;257;1213;-39
2022/03/02 10:04:44;;;;;;;;;;;21.60;27.30;;;;;;461916;257;1120;-39
2022/03/02 10:06:46;;;;;;;;;;;21.70;27.30;;;;;;462049;257;1339;-39
2022/03/02 10:08:47;;;;;;;;;;;21.70;27.30;;;;;;462123;257;2195;-39
2022/03/02 10:10:48;;;;;;;;;;;21.70;27.30;;;;;;462199;257;1272;-39
2022/03/02 10:12:50;;;;;;;;;;;21.70;27.20;;;;;;462242;257;1074;-39
2022/03/02 10:14:51;;;;;;;;;;;21.70;27.30;;;;;;462066;257;1150;-39
2022/03/02 10:16:52;;;;;;;;;;;21.70;27.20;;;;;;462061;257;1238;-39
2022/03/02 10:18:54;;;;;;;;;;;21.70;27.20;;;;;;462192;257;1156;-39
2022/03/02 10:20:55;;;;;;;;;;;21.70;27.20;;;;;;461967;257;1423;-39
2022/03/02 10:22:56;;;;;;;;;;;21.70;27.20;;;;;;462068;257;1068;-39
2022/03/02 10:24:58;;;;;;;;;;;21.70;27.20;;;;;;462046;257;1170;-39
2022/03/02 10:26:59;;;;;;;;;;;21.70;27.20;;;;;;462120;257;1370;-39
2022/03/02 10:29:00;;;;;;;;;;;21.70;27.20;;;;;;462114;257;2128;-39
2022/03/02 10:31:02;;;;;;;;;;;21.70;27.20;;;;;;462094;257;1167;-39
2022/03/02 10:33:03;;;;;;;;;;;21.70;27.20;;;;;;461977;257;1218;-39
2022/03/02 10:35:04;;;;;;;;;;;21.70;27.20;;;;;;461910;257;1082;-39
2022/03/02 10:37:06;;;;;;;;;;;21.70;27.20;;;;;;461832;257;1201;-39
2022/03/02 10:39:07;;;;;;;;;;;21.70;27.30;;;;;;461799;257;1476;-39
2022/03/02 10:41:09;;;;;;;;;;;21.70;27.20;;;;;;461930;257;1384;-39
2022/03/02 10:43:10;;;;;;;;;;;21.70;27.20;;;;;;461953;257;762;-39
2022/03/02 10:45:11;;;;;;;;;;;21.70;27.20;;;;;;462477;257;751;-39
2022/03/02 10:47:13;;;;;;;;;;;21.70;27.20;;;;;;462412;257;1089;-39
2022/03/02 10:49:14;;;;;;;;;;;21.70;27.20;;;;;;462497;257;2196;-39
2022/03/02 10:51:15;;;;;;;;;;;21.70;27.20;;;;;;462429;257;1157;-39
2022/03/02 10:53:17;;;;;;;;;;;21.70;27.20;;;;;;462020;257;791;-39
2022/03/02 10:55:18;;;;;;;;;;;21.70;27.20;;;;;;462425;257;1582;-39
2022/03/02 10:57:19;;;;;;;;;;;21.60;27.20;;;;;;462107;257;1149;-39
2022/03/02 10:59:21;;;;;;;;;;;21.70;27.20;;;;;;462513;257;827;-39
2022/03/02 11:01:22;;;;;;;;;;;21.70;27.20;;;;;;462478;257;1159;-39
2022/03/02 11:03:23;;;;;;;;;;;21.70;27.20;;;;;;462194;257;1265;-39
2022/03/02 11:05:25;;;;;;;;;;;21.70;27.20;;;;;;462640;257;1442;-39
2022/03/02 11:07:26;;;;;;;;;;;21.70;27.20;;;;;;462590;257;1314;-39
2022/03/02 11:09:27;;;;;;;;;;;21.70;27.20;;;;;;462227;257;2204;-39
2022/03/02 11:11:29;;;;;;;;;;;21.70;27.20;;;;;;462042;257;1326;-39
2022/03/02 11:13:30;;;;;;;;;;;21.70;27.20;;;;;;462371;257;996;-39
2022/03/02 11:15:31;;;;;;;;;;;21.70;27.20;;;;;;462046;257;1347;-39
2022/03/02 11:17:33;;;;;;;;;;;21.70;27.20;;;;;;462499;257;1076;-39
2022/03/02 11:19:34;;;;;;;;;;;21.70;27.20;;;;;;462516;257;760;-39
2022/03/02 11:21:36;;;;;;;;;;;21.70;27.20;;;;;;462317;257;1054;-39
2022/03/02 11:23:36;;;;;;;;;;;21.70;27.20;;;;;;461799;258;2209;-39
2022/03/02 11:25:38;;;;;;;;;;;21.70;27.20;;;;;;462311;257;1517;-39
2022/03/02 11:27:39;;;;;;;;;;;21.70;27.20;;;;;;462032;257;1118;-39
2022/03/02 11:29:41;;;;;;;;;;;21.70;27.20;;;;;;462101;257;2207;-39
2022/03/02 11:31:42;;;;;;;;;;;21.70;27.20;;;;;;461953;257;1165;-39
2022/03/02 11:33:43;;;;;;;;;;;21.70;27.20;;;;;;461864;257;1076;-39
2022/03/02 11:35:44;;;;;;;;;;;21.70;27.20;;;;;;462474;257;1433;-39
2022/03/02 11:37:46;;;;;;;;;;;21.80;27.20;;;;;;462379;257;1199;-39
2022/03/02 11:39:48;;;;;;;;;;;21.70;27.10;;;;;;462456;257;797;-39
2022/03/02 11:41:48;;;;;;;;;;;21.70;27.20;;;;;;461944;257;2293;-39
2022/03/02 11:43:50;;;;;;;;;;;21.70;27.20;;;;;;462499;257;621;-39
2022/03/02 11:45:56;;;;;;;;;;;21.70;27.10;;;;;;462431;257;1372;-39
2022/03/02 11:47:55;;;;;;;;;;;21.70;27.20;;;;;;461822;257;2012;-39
2022/03/02 11:49:53;;;;;;;;;;;21.70;27.10;;;;;;461952;257;2255;-39
2022/03/02 11:51:55;;;;;;;;;;;21.70;27.20;;;;;;462104;257;1240;-39
2022/03/02 11:53:56;;;;;;;;;;;21.70;27.20;;;;;;462693;257;782;-39
2022/03/02 11:55:57;;;;;;;;;;;21.70;27.20;;;;;;462185;257;1388;-39